createdAt,value
2023-01-30T00:06:17.378Z,11.05
2023-01-30T00:21:18.728Z,10.35
2023-01-30T00:36:20.176Z,9.25
2023-01-30T00:51:21.663Z,9.93
2023-01-30T01:06:23.112Z,10.18
2023-01-30T01:21:24.484Z,10.43
2023-01-30T01:36:53.314Z,11.05
2023-01-30T01:51:50.896Z,12.20
2023-01-30T02:06:52.302Z,12.15
2023-01-30T02:21:53.795Z,12.93
2023-01-30T02:36:55.865Z,14.00
2023-01-30T02:51:57.231Z,12.98
2023-01-30T03:06:59.074Z,13.80
2023-01-30T03:22:00.673Z,14.68
2023-01-30T03:37:02.460Z,14.48
2023-01-30T03:52:08.398Z,14.70
2023-01-30T04:07:09.956Z,14.02
2023-01-30T04:22:14.786Z,12.55
2023-01-30T04:37:16.330Z,11.63
2023-01-30T04:52:19.223Z,11.38
2023-01-30T05:07:20.852Z,11.38
2023-01-30T05:22:22.592Z,12.77
2023-01-30T05:37:24.531Z,10.68
2023-01-30T05:52:25.912Z,9.80
2023-01-30T06:07:27.257Z,9.88
2023-01-30T06:22:28.655Z,9.25
2023-01-30T06:37:30.025Z,9.18
2023-01-30T06:52:31.428Z,9.25
2023-01-30T07:07:32.828Z,8.60
2023-01-30T07:22:34.209Z,8.60
2023-01-30T07:37:35.581Z,8.38
2023-01-30T07:52:36.918Z,6.47
2023-01-30T08:07:38.270Z,8.38
2023-01-30T08:22:39.654Z,7.88
2023-01-30T08:37:41.048Z,8.50
2023-01-30T08:52:42.437Z,8.13
2023-01-30T09:07:43.875Z,8.05
2023-01-30T09:22:45.277Z,9.50
2023-01-30T09:37:46.652Z,7.80
2023-01-30T09:52:48.051Z,8.07
2023-01-30T10:07:49.602Z,6.88
2023-01-30T10:22:51.196Z,6.30
2023-01-30T10:37:52.653Z,6.07
2023-01-30T10:52:54.066Z,6.30
2023-01-30T11:07:55.615Z,6.45
2023-01-30T11:22:56.978Z,6.10
2023-01-30T11:37:58.399Z,6.63
2023-01-30T11:52:59.775Z,6.30
2023-01-30T12:08:01.167Z,4.68
2023-01-30T12:23:02.539Z,4.43
2023-01-30T12:38:03.939Z,4.20
2023-01-30T12:53:05.300Z,3.75
2023-01-30T13:08:06.861Z,2.70
2023-01-30T13:23:08.224Z,2.47
2023-01-30T13:38:10.839Z,2.90
2023-01-30T13:53:12.209Z,3.25
2023-01-30T14:08:15.059Z,3.75
2023-01-30T14:23:16.425Z,3.75
2023-01-30T14:38:17.798Z,4.38
2023-01-30T14:53:19.163Z,5.10
2023-01-30T15:08:20.587Z,6.22
2023-01-30T15:23:21.957Z,5.25
2023-01-30T15:38:25.040Z,5.82
2023-01-30T15:53:26.453Z,5.78
2023-01-30T16:08:27.820Z,5.50
2023-01-30T16:23:29.258Z,6.95
2023-01-30T16:38:30.632Z,5.97
2023-01-30T16:53:32.036Z,7.07
2023-01-30T17:08:46.177Z,11.95
2023-01-30T17:23:47.563Z,6.35
2023-01-30T17:38:48.946Z,7.32
2023-01-30T17:53:50.294Z,7.97
2023-01-30T18:08:51.716Z,7.05
2023-01-30T18:23:53.214Z,7.53
2023-01-30T18:38:54.744Z,8.27
2023-01-30T18:53:56.102Z,8.77
2023-01-30T19:08:57.612Z,8.00
2023-01-30T19:23:59.600Z,8.02
2023-01-30T19:39:01.674Z,8.18
2023-01-30T19:54:04.345Z,7.78
2023-01-30T20:09:05.770Z,8.18
2023-01-30T20:24:07.189Z,9.10
2023-01-30T20:39:08.778Z,9.50
2023-01-30T20:54:10.233Z,10.00
2023-01-30T21:09:11.778Z,9.43
2023-01-30T21:24:13.340Z,11.80
2023-01-30T21:39:33.618Z,12.18
2023-01-30T21:54:35.094Z,9.10
2023-01-30T22:09:36.513Z,9.82
2023-01-30T22:24:38.486Z,8.90
2023-01-30T22:39:40.936Z,9.77
2023-01-30T22:54:42.311Z,10.05
2023-01-30T23:09:43.723Z,9.90
2023-01-30T23:24:45.102Z,8.90
2023-01-30T23:39:46.469Z,8.73
2023-01-30T23:54:48.258Z,8.43
